Time;durP1;ratioP1;P1;durP2;ratioP2;P2;SDS_P1;SDS_P2;PMS_P1;PMS_P2;Temp;Humidity;BMP_temperature;BMP_pressure;BME280_temperature;BME280_humidity;BME280_pressure;Samples;Min_cycle;Max_cycle;Signal;HPM_P1;HPM_P2
2022/07/22 00:02:08;;;;;;;1.73;1.00;;;19.50;99.90;;;;;;5076721;28;20506;-79
2022/07/22 00:04:34;;;;;;;1.03;0.87;;;19.40;99.90;;;;;;5076673;28;20447;-79
2022/07/22 00:07:01;;;;;;;3.20;1.10;;;19.40;99.90;;;;;;5076603;28;20451;-79
2022/07/22 00:09:29;;;;;;;1.37;1.00;;;19.40;99.90;;;;;;5076191;28;20468;-79
2022/07/22 00:11:57;;;;;;;1.90;1.40;;;19.40;99.90;;;;;;5076481;28;20544;-79
2022/07/22 00:14:23;;;;;;;1.07;0.97;;;19.40;99.90;;;;;;5076174;28;20507;-79
2022/07/22 00:16:50;;;;;;;3.13;1.63;;;19.30;99.90;;;;;;5076355;28;20471;-79
2022/07/22 00:19:17;;;;;;;1.13;1.10;;;19.30;99.90;;;;;;5076000;28;20822;-79
2022/07/22 00:21:44;;;;;;;3.20;1.70;;;19.30;99.90;;;;;;5076335;28;20448;-79
2022/07/22 00:24:11;;;;;;;2.10;1.03;;;19.30;99.90;;;;;;5076327;28;20466;-79
2022/07/22 00:26:37;;;;;;;2.17;1.30;;;19.30;99.90;;;;;;5077036;28;20453;-79
2022/07/22 00:29:05;;;;;;;1.43;1.20;;;19.30;99.90;;;;;;5076161;28;20456;-79
2022/07/22 00:31:32;;;;;;;3.70;1.90;;;19.30;99.90;;;;;;5076189;28;20447;-79
2022/07/22 00:34:00;;;;;;;1.73;1.30;;;19.20;99.90;;;;;;5076114;28;20444;-79
2022/07/22 00:36:28;;;;;;;6.57;1.33;;;19.10;99.90;;;;;;5076092;28;20513;-79
2022/07/22 00:38:54;;;;;;;2.40;1.33;;;19.10;99.90;;;;;;5075641;28;20492;-79
2022/07/22 00:41:21;;;;;;;1.73;1.50;;;19.10;99.90;;;;;;5076004;28;20453;-79
2022/07/22 00:43:54;;;;;;;2.30;1.40;;;19.00;99.90;;;;;;5075925;28;20452;-79
2022/07/22 00:46:22;;;;;;;1.20;1.00;;;19.00;99.90;;;;;;5075885;28;20456;-79
2022/07/22 00:48:49;;;;;;;1.97;1.80;;;19.00;99.90;;;;;;5075483;28;20464;-79
2022/07/22 00:51:16;;;;;;;1.83;1.47;;;18.90;99.90;;;;;;5075818;28;20472;-79
2022/07/22 00:53:43;;;;;;;1.73;1.00;;;18.90;99.90;;;;;;5075460;28;20449;-79
2022/07/22 00:56:10;;;;;;;1.13;0.87;;;18.90;99.90;;;;;;5075730;28;20448;-78
2022/07/22 00:58:37;;;;;;;1.47;1.03;;;18.90;99.90;;;;;;5075542;28;20561;-79
2022/07/22 01:01:04;;;;;;;1.53;1.10;;;18.80;99.90;;;;;;5075622;28;20471;-79
2022/07/22 01:03:33;;;;;;;1.70;1.60;;;18.80;99.90;;;;;;5075611;28;20460;-79
2022/07/22 01:05:59;;;;;;;1.70;1.23;;;18.80;99.90;;;;;;5075513;28;20460;-79
2022/07/22 01:08:27;;;;;;;2.90;1.50;;;18.70;99.90;;;;;;5075428;28;20464;-79
2022/07/22 01:10:53;;;;;;;2.17;1.53;;;18.70;99.90;;;;;;5075122;28;20948;-79
2022/07/22 01:13:20;;;;;;;3.57;1.43;;;18.70;99.90;;;;;;5075139;28;20432;-79
2022/07/22 01:15:47;;;;;;;1.83;1.23;;;18.70;99.90;;;;;;5075073;28;20474;-79
2022/07/22 01:18:13;;;;;;;1.33;1.17;;;18.70;99.90;;;;;;5075165;28;20857;-79
2022/07/22 01:20:42;;;;;;;1.73;0.90;;;18.60;99.90;;;;;;5075018;28;20437;-79
2022/07/22 01:23:08;;;;;;;1.90;1.10;;;18.60;99.90;;;;;;5074955;28;20956;-79
2022/07/22 01:25:35;;;;;;;2.03;1.57;;;18.60;99.90;;;;;;5075219;28;20451;-79
2022/07/22 01:28:02;;;;;;;7.93;1.60;;;18.50;99.90;;;;;;5075023;28;20544;-79
2022/07/22 01:30:29;;;;;;;1.60;1.50;;;18.50;99.90;;;;;;5074777;28;20956;-79
2022/07/22 01:32:55;;;;;;;1.53;1.40;;;18.50;99.90;;;;;;5075076;28;20448;-79
2022/07/22 01:35:22;;;;;;;1.27;1.17;;;18.50;99.90;;;;;;5075017;28;20444;-79
2022/07/22 01:37:50;;;;;;;1.10;1.00;;;18.50;99.90;;;;;;5074249;28;20995;-79
2022/07/22 01:40:17;;;;;;;2.00;1.23;;;18.40;99.90;;;;;;5074924;28;20445;-79
2022/07/22 01:42:44;;;;;;;2.00;1.57;;;18.40;99.90;;;;;;5074822;28;20447;-79
2022/07/22 01:45:11;;;;;;;1.63;1.33;;;18.30;99.90;;;;;;5074758;28;20459;-79
2022/07/22 01:47:38;;;;;;;1.07;0.97;;;18.30;99.90;;;;;;5074418;28;20967;-79
2022/07/22 01:50:05;;;;;;;2.33;1.10;;;18.30;99.90;;;;;;5074332;28;21002;-79
2022/07/22 01:52:32;;;;;;;2.17;1.00;;;18.30;99.90;;;;;;5074300;28;21009;-79
2022/07/22 01:55:00;;;;;;;1.80;1.70;;;18.30;99.90;;;;;;5074100;28;20456;-79
2022/07/22 01:57:27;;;;;;;1.60;1.17;;;18.30;99.90;;;;;;5074124;28;20966;-79
2022/07/22 01:59:53;;;;;;;6.20;1.40;;;18.30;99.90;;;;;;5074954;28;20539;-79
2022/07/22 02:02:20;;;;;;;1.50;1.40;;;18.20;99.90;;;;;;5074398;28;20464;-79
2022/07/22 02:04:47;;;;;;;2.97;1.60;;;18.20;99.90;;;;;;5074396;28;20429;-79
2022/07/22 02:07:14;;;;;;;2.53;1.17;;;18.20;99.90;;;;;;5074316;28;20519;-79
2022/07/22 02:09:40;;;;;;;1.63;1.53;;;18.20;99.90;;;;;;5073906;28;20468;-79
2022/07/22 02:12:09;;;;;;;1.90;1.40;;;18.10;99.90;;;;;;5074205;28;20453;-79
2022/07/22 02:14:36;;;;;;;1.43;1.20;;;18.10;99.90;;;;;;5074179;28;20440;-79
2022/07/22 02:17:02;;;;;;;2.03;1.20;;;18.10;99.90;;;;;;5074149;28;20480;-79
2022/07/22 02:19:29;;;;;;;1.47;1.03;;;18.10;99.90;;;;;;5073924;28;20489;-79
2022/07/22 02:21:56;;;;;;;2.50;1.00;;;18.10;99.90;;;;;;5074013;28;20449;-79
2022/07/22 02:24:23;;;;;;;1.00;0.90;;;18.10;99.90;;;;;;5073647;28;20844;-79
2022/07/22 02:26:50;;;;;;;3.50;1.50;;;18.10;99.90;;;;;;5073987;28;20458;-79
2022/07/22 02:29:18;;;;;;;2.70;2.13;;;18.00;99.90;;;;;;5073832;28;20471;-79
2022/07/22 02:31:44;;;;;;;1.67;1.43;;;18.00;99.90;;;;;;5073852;28;20449;-79
2022/07/22 02:34:12;;;;;;;3.80;1.77;;;18.00;99.90;;;;;;5073515;28;20947;-79
2022/07/22 02:36:38;;;;;;;1.87;1.40;;;17.90;99.90;;;;;;5073456;28;20822;-79
2022/07/22 02:39:06;;;;;;;3.63;1.90;;;17.90;99.90;;;;;;5073162;28;21031;-79
2022/07/22 02:41:33;;;;;;;2.10;1.80;;;17.90;99.90;;;;;;5073714;28;20451;-79
2022/07/22 02:43:59;;;;;;;4.43;0.90;;;17.90;99.90;;;;;;5073379;28;20964;-79
2022/07/22 02:46:29;;;;;;;1.43;1.20;;;17.80;99.90;;;;;;5073343;28;20944;-79
2022/07/22 02:48:56;;;;;;;1.90;1.60;;;17.80;99.90;;;;;;5073281;28;21113;-79
2022/07/22 02:51:23;;;;;;;2.07;1.50;;;17.80;99.90;;;;;;5073601;28;20445;-79
2022/07/22 02:53:50;;;;;;;2.00;0.90;;;17.80;99.90;;;;;;5073537;28;20467;-79
2022/07/22 02:56:17;;;;;;;2.13;1.60;;;17.80;99.90;;;;;;5073579;28;20453;-79
2022/07/22 02:58:45;;;;;;;1.83;1.30;;;17.70;99.90;;;;;;5073027;28;20859;-79
2022/07/22 03:01:12;;;;;;;2.80;0.83;;;17.70;99.90;;;;;;5073302;28;20456;-79
2022/07/22 03:03:40;;;;;;;1.80;1.50;;;17.70;99.90;;;;;;5073192;28;21042;-79
2022/07/22 03:06:07;;;;;;;1.73;1.10;;;17.70;99.90;;;;;;5072810;28;20960;-79
2022/07/22 03:08:34;;;;;;;3.10;1.33;;;17.60;99.90;;;;;;5072843;28;20468;-79
2022/07/22 03:11:01;;;;;;;1.23;0.80;;;17.60;99.90;;;;;;5073390;28;20448;-79
2022/07/22 03:13:28;;;;;;;1.63;1.10;;;17.60;99.90;;;;;;5073070;28;20448;-79
2022/07/22 03:15:54;;;;;;;2.60;1.60;;;17.60;99.90;;;;;;5073372;28;20440;-79
2022/07/22 03:18:21;;;;;;;2.17;1.27;;;17.60;99.90;;;;;;5072879;28;20493;-79
2022/07/22 03:20:49;;;;;;;2.20;1.17;;;17.60;99.90;;;;;;5072982;28;20963;-79
2022/07/22 03:23:16;;;;;;;2.13;1.23;;;17.60;99.90;;;;;;5072985;28;20445;-79
2022/07/22 03:25:43;;;;;;;1.37;1.20;;;17.60;99.90;;;;;;5073317;28;20453;-83
2022/07/22 03:28:10;;;;;;;2.90;1.37;;;17.60;99.90;;;;;;5072889;28;20976;-83
2022/07/22 03:30:37;;;;;;;1.90;1.03;;;17.60;99.90;;;;;;5073523;28;20504;-83
2022/07/22 03:33:04;;;;;;;2.87;1.47;;;17.60;99.90;;;;;;5073232;28;20447;-83
2022/07/22 03:35:30;;;;;;;4.50;1.43;;;17.50;99.90;;;;;;5073128;28;20444;-83
2022/07/22 03:37:58;;;;;;;1.63;1.23;;;17.50;99.90;;;;;;5072511;28;20484;-83
2022/07/22 03:40:25;;;;;;;1.90;1.67;;;17.50;99.90;;;;;;5073094;28;20459;-83
2022/07/22 03:42:52;;;;;;;2.67;0.80;;;17.50;99.90;;;;;;5072745;28;20809;-83
2022/07/22 03:45:19;;;;;;;2.20;1.70;;;17.40;99.90;;;;;;5072789;28;20441;-83
2022/07/22 03:47:45;;;;;;;1.30;1.03;;;17.40;99.90;;;;;;5073064;28;20456;-83
2022/07/22 03:50:12;;;;;;;2.53;1.70;;;17.40;99.90;;;;;;5072923;28;20465;-83
2022/07/22 03:52:39;;;;;;;1.60;1.10;;;17.40;99.90;;;;;;5073003;28;20444;-83
2022/07/22 03:55:08;;;;;;;2.93;1.43;;;17.30;99.90;;;;;;5072986;28;20453;-83
2022/07/22 03:57:35;;;;;;;2.83;1.73;;;17.30;99.90;;;;;;5072916;28;20445;-83
2022/07/22 04:00:01;;;;;;;1.47;1.07;;;17.30;99.90;;;;;;5072784;28;20492;-83
2022/07/22 04:02:28;;;;;;;1.23;0.70;;;17.30;99.90;;;;;;5072580;28;21040;-83
2022/07/22 04:04:55;;;;;;;1.30;0.90;;;17.30;99.90;;;;;;5072531;28;20813;-83
2022/07/22 04:07:22;;;;;;;1.40;1.30;;;17.30;99.90;;;;;;5072874;28;20451;-83
2022/07/22 04:09:48;;;;;;;2.53;2.33;;;17.30;99.90;;;;;;5072427;28;20976;-83
2022/07/22 04:12:16;;;;;;;3.80;1.23;;;17.40;99.90;;;;;;5072797;28;20453;-83
2022/07/22 04:14:43;;;;;;;2.30;1.80;;;17.40;99.90;;;;;;5072751;28;20445;-83
2022/07/22 04:17:10;;;;;;;1.37;1.13;;;17.40;99.90;;;;;;5072739;28;20449;-83
2022/07/22 04:19:36;;;;;;;1.27;1.17;;;17.40;99.90;;;;;;5075544;28;20484;-83
2022/07/22 04:22:03;;;;;;;2.37;1.30;;;17.50;99.90;;;;;;5076368;28;20453;-84
2022/07/22 04:24:30;;;;;;;2.63;1.13;;;17.40;99.90;;;;;;5076282;28;20456;-83
2022/07/22 04:26:57;;;;;;;1.13;0.90;;;17.50;99.90;;;;;;5075998;28;20936;-83
2022/07/22 04:29:25;;;;;;;2.93;1.47;;;17.50;99.90;;;;;;5076153;28;20464;-84
2022/07/22 04:31:52;;;;;;;2.10;1.37;;;17.50;99.90;;;;;;5076160;28;20547;-83
2022/07/22 04:34:18;;;;;;;2.27;1.17;;;17.50;99.90;;;;;;5076105;28;20455;-83
2022/07/22 04:36:45;;;;;;;3.80;2.17;;;17.50;99.90;;;;;;5076081;28;20452;-83
2022/07/22 04:39:12;;;;;;;2.23;1.80;;;17.60;99.90;;;;;;5075503;28;20496;-83
2022/07/22 04:41:38;;;;;;;1.43;1.30;;;17.60;99.90;;;;;;5075989;28;20450;-83
2022/07/22 04:44:05;;;;;;;1.33;1.23;;;17.70;99.90;;;;;;5075671;28;20948;-83
2022/07/22 04:46:33;;;;;;;0.90;0.70;;;17.70;99.90;;;;;;5075927;28;20452;-84
2022/07/22 04:49:00;;;;;;;2.53;2.17;;;17.70;99.90;;;;;;5075505;28;20980;-83
2022/07/22 04:51:27;;;;;;;2.23;1.60;;;17.70;99.90;;;;;;5075828;28;20445;-84
2022/07/22 04:53:53;;;;;;;3.00;1.53;;;17.80;99.90;;;;;;5075806;28;20449;-83
2022/07/22 04:56:20;;;;;;;4.17;1.50;;;17.80;99.90;;;;;;5075768;28;20445;-84
2022/07/22 04:58:47;;;;;;;3.87;2.23;;;17.80;99.90;;;;;;5075551;28;20480;-83
2022/07/22 05:01:14;;;;;;;1.87;1.40;;;17.90;99.90;;;;;;5075680;28;20456;-83
2022/07/22 05:03:42;;;;;;;3.07;1.73;;;17.90;99.90;;;;;;5075249;28;20937;-84
2022/07/22 05:06:09;;;;;;;1.63;1.53;;;18.00;99.90;;;;;;5075552;28;20456;-83
2022/07/22 05:08:36;;;;;;;1.87;1.63;;;18.00;99.90;;;;;;5075470;28;20492;-84
2022/07/22 05:11:03;;;;;;;4.30;2.07;;;18.10;99.90;;;;;;5075450;28;20445;-84
2022/07/22 05:13:30;;;;;;;2.47;1.77;;;18.10;99.90;;;;;;5075484;28;20449;-84
2022/07/22 05:15:56;;;;;;;4.50;1.83;;;18.10;99.90;;;;;;5075095;28;20948;-84
2022/07/22 05:18:23;;;;;;;4.53;2.20;;;18.20;99.90;;;;;;5074836;28;20471;-84
2022/07/22 05:20:51;;;;;;;2.60;1.90;;;18.20;99.90;;;;;;5075302;28;20444;-84
2022/07/22 05:23:18;;;;;;;3.77;1.90;;;18.30;99.90;;;;;;5075214;28;20445;-84
2022/07/22 05:25:45;;;;;;;2.37;1.40;;;18.30;99.90;;;;;;5074909;28;20456;-84
2022/07/22 05:28:11;;;;;;;4.67;1.93;;;18.40;99.90;;;;;;5075061;28;20480;-84
2022/07/22 05:30:38;;;;;;;5.00;1.67;;;18.40;99.90;;;;;;5074256;28;20498;-84
2022/07/22 05:33:05;;;;;;;4.00;1.83;;;18.40;99.90;;;;;;5075016;28;20464;-84
2022/07/22 05:35:32;;;;;;;2.50;1.53;;;18.50;99.90;;;;;;5074698;28;20940;-84
2022/07/22 05:38:00;;;;;;;1.93;1.83;;;18.50;99.90;;;;;;5074531;28;20488;-83
2022/07/22 05:40:27;;;;;;;2.90;2.20;;;18.50;99.90;;;;;;5074832;28;20485;-84
2022/07/22 05:42:54;;;;;;;1.60;1.50;;;18.60;99.90;;;;;;5074823;28;20456;-83
2022/07/22 05:45:21;;;;;;;1.83;1.67;;;18.60;99.90;;;;;;5074830;28;20441;-84
2022/07/22 05:47:47;;;;;;;3.00;1.90;;;18.70;99.90;;;;;;5074431;28;20817;-84
2022/07/22 05:50:14;;;;;;;2.03;1.20;;;18.70;99.90;;;;;;5074696;28;20447;-84
2022/07/22 05:52:42;;;;;;;2.23;1.50;;;18.80;99.90;;;;;;5074311;28;20440;-84
2022/07/22 05:55:10;;;;;;;4.30;2.37;;;18.90;99.90;;;;;;5074610;28;20457;-84
2022/07/22 05:57:37;;;;;;;2.83;2.00;;;18.90;99.90;;;;;;5074579;28;20429;-84
2022/07/22 06:00:05;;;;;;;4.37;2.60;;;19.00;99.90;;;;;;5074028;28;20820;-84
2022/07/22 06:02:32;;;;;;;3.80;2.77;;;19.10;99.90;;;;;;5074451;28;20452;-84
2022/07/22 06:05:00;;;;;;;5.10;2.57;;;19.20;99.90;;;;;;5074355;28;20449;-84
2022/07/22 06:07:27;;;;;;;3.30;1.70;;;19.40;99.90;;;;;;5074357;28;20448;-84
2022/07/22 06:09:53;;;;;;;2.03;1.80;;;19.50;99.90;;;;;;5074212;28;20479;-84
2022/07/22 06:12:22;;;;;;;3.60;1.83;;;19.60;99.90;;;;;;5074243;28;20445;-84
2022/07/22 06:14:48;;;;;;;3.90;1.70;;;19.70;99.90;;;;;;5074203;28;20448;-84
2022/07/22 06:17:15;;;;;;;2.60;1.90;;;19.80;99.90;;;;;;5074088;28;20449;-84
2022/07/22 06:19:42;;;;;;;3.10;1.93;;;19.90;99.90;;;;;;5073966;28;20487;-84
2022/07/22 06:22:09;;;;;;;3.83;2.50;;;20.10;99.90;;;;;;5073724;28;20815;-84
2022/07/22 06:24:36;;;;;;;3.40;2.17;;;20.20;99.90;;;;;;5074018;28;20487;-84
2022/07/22 06:27:02;;;;;;;2.53;2.00;;;20.30;99.90;;;;;;5073968;28;20448;-84
2022/07/22 06:29:30;;;;;;;3.07;1.50;;;20.50;99.90;;;;;;5074196;28;20461;-84
2022/07/22 06:31:57;;;;;;;1.97;1.63;;;20.70;99.90;;;;;;5073921;28;20444;-84
2022/07/22 06:34:24;;;;;;;3.23;2.40;;;20.90;99.90;;;;;;5073849;28;20484;-84
2022/07/22 06:36:51;;;;;;;5.00;2.17;;;21.00;99.90;;;;;;5073828;28;20459;-83
2022/07/22 06:39:18;;;;;;;6.40;2.20;;;21.10;99.90;;;;;;5073216;28;20491;-84
2022/07/22 06:41:44;;;;;;;2.70;1.63;;;21.20;99.90;;;;;;5073662;28;20459;-84
2022/07/22 06:44:11;;;;;;;5.50;2.53;;;21.40;99.90;;;;;;5073423;28;20443;-84
2022/07/22 06:46:39;;;;;;;3.43;2.63;;;21.60;99.90;;;;;;5073729;28;20444;-84
2022/07/22 06:49:06;;;;;;;2.70;2.50;;;21.70;99.90;;;;;;5073285;28;20903;-82
2022/07/22 06:51:33;;;;;;;6.53;2.07;;;21.90;99.90;;;;;;5073644;28;20455;-83
2022/07/22 06:54:00;;;;;;;3.47;1.93;;;22.00;99.90;;;;;;5073485;28;20444;-83
2022/07/22 06:56:27;;;;;;;5.63;2.73;;;22.10;99.90;;;;;;5073630;28;20471;-83
2022/07/22 06:58:54;;;;;;;5.00;1.97;;;22.20;99.90;;;;;;5073413;28;20464;-84
2022/07/22 07:01:20;;;;;;;2.80;1.90;;;22.30;99.90;;;;;;5073240;28;20428;-84
2022/07/22 07:03:48;;;;;;;2.63;2.37;;;22.40;99.90;;;;;;5073511;28;20452;-84
2022/07/22 07:06:15;;;;;;;2.27;2.07;;;22.50;99.90;;;;;;5073166;28;20939;-84
2022/07/22 07:08:42;;;;;;;5.67;1.90;;;22.60;99.90;;;;;;5073042;28;20831;-83
2022/07/22 07:11:09;;;;;;;3.23;1.93;;;22.60;99.90;;;;;;5073438;28;20440;-83
2022/07/22 07:13:36;;;;;;;2.43;2.17;;;22.70;99.90;;;;;;5073458;28;20444;-84
2022/07/22 07:16:03;;;;;;;2.10;1.90;;;22.90;99.90;;;;;;5073348;28;20533;-83
2022/07/22 07:18:29;;;;;;;2.30;1.67;;;23.20;99.90;;;;;;5073330;28;20468;-83
2022/07/22 07:20:58;;;;;;;4.03;2.80;;;23.30;99.90;;;;;;5072940;28;20817;-83
2022/07/22 07:23:24;;;;;;;4.43;2.27;;;23.30;99.90;;;;;;5073269;28;20208;-83
2022/07/22 07:25:51;;;;;;;3.60;2.20;;;23.40;99.90;;;;;;5073302;28;20209;-83
2022/07/22 07:28:19;;;;;;;3.97;2.67;;;23.40;99.90;;;;;;5073146;28;20222;-84
2022/07/22 07:30:46;;;;;;;2.20;1.47;;;23.60;99.90;;;;;;5073181;28;20687;-83
2022/07/22 07:33:13;;;;;;;3.53;2.43;;;23.80;99.90;;;;;;5073224;28;20206;-84
2022/07/22 07:35:40;;;;;;;3.65;1.92;;;24.00;99.90;;;;;;5072889;28;20564;-83
2022/07/22 07:38:08;;;;;;;3.20;2.50;;;24.10;99.90;;;;;;5072604;28;20732;-83
2022/07/22 07:40:35;;;;;;;2.87;2.00;;;24.20;99.90;;;;;;5074533;28;20226;-83
2022/07/22 07:43:02;;;;;;;4.07;2.22;;;24.30;99.90;;;;;;5073116;28;20205;-83
2022/07/22 07:45:29;;;;;;;3.60;2.08;;;24.30;99.90;;;;;;5073532;28;20662;-83
2022/07/22 07:47:57;;;;;;;3.15;2.38;;;24.30;99.90;;;;;;5073202;28;20218;-77
2022/07/22 07:50:24;;;;;;;4.15;2.47;;;24.40;99.90;;;;;;5073399;28;20194;-77
2022/07/22 07:52:52;;;;;;;2.35;1.80;;;24.40;99.90;;;;;;5073844;28;20198;-83
2022/07/22 07:55:20;;;;;;;2.17;1.98;;;24.40;99.90;;;;;;5076624;28;20669;-83
2022/07/22 07:57:48;;;;;;;3.92;3.15;;;24.60;99.90;;;;;;5077033;28;20202;-77
2022/07/22 08:00:18;;;;;;;3.60;2.03;;;24.60;99.90;;;;;;5076898;28;20264;-77
2022/07/22 08:02:46;;;;;;;2.60;2.10;;;24.80;99.90;;;;;;5077830;28;20190;-77
2022/07/22 08:05:13;;;;;;;2.97;2.63;;;24.90;99.90;;;;;;5076891;28;20205;-79
2022/07/22 08:07:41;;;;;;;4.10;2.75;;;25.10;99.90;;;;;;5076433;28;20205;-79
2022/07/22 08:10:09;;;;;;;2.63;1.80;;;25.20;99.90;;;;;;5076729;28;20214;-84
2022/07/22 08:12:38;;;;;;;4.10;2.53;;;25.30;99.90;;;;;;5077137;28;20633;-77
2022/07/22 08:15:06;;;;;;;2.25;2.00;;;25.50;99.90;;;;;;5076355;28;20666;-77
2022/07/22 08:17:34;;;;;;;3.35;2.85;;;25.80;99.90;;;;;;5076317;28;20241;-78
2022/07/22 08:20:01;;;;;;;2.25;2.10;;;25.80;99.90;;;;;;5076090;28;20222;-77
2022/07/22 08:22:29;;;;;;;3.08;2.50;;;25.80;99.90;;;;;;5076213;28;20202;-77
2022/07/22 08:24:56;;;;;;;5.15;2.60;;;25.90;99.90;;;;;;5076621;28;20284;-78
2022/07/22 08:27:23;;;;;;;3.10;2.90;;;26.00;99.90;;;;;;5077257;28;20202;-78
2022/07/22 08:29:52;;;;;;;3.42;2.20;;;26.20;99.90;;;;;;5076231;28;20222;-83
2022/07/22 08:32:19;;;;;;;2.75;2.55;;;26.20;99.90;;;;;;5076769;28;20202;-77
2022/07/22 08:34:46;;;;;;;3.10;2.20;;;26.30;99.90;;;;;;5077298;28;20206;-78
2022/07/22 08:37:13;;;;;;;2.15;1.98;;;26.30;99.90;;;;;;5075969;28;20212;-77
2022/07/22 08:39:40;;;;;;;2.45;2.17;;;26.30;99.90;;;;;;5076450;28;20260;-84
2022/07/22 08:42:08;;;;;;;2.20;1.70;;;26.40;99.90;;;;;;5076577;28;20289;-84
2022/07/22 08:44:35;;;;;;;4.07;2.60;;;26.50;99.90;;;;;;5076222;28;20206;-84
2022/07/22 08:47:04;;;;;;;2.00;1.90;;;26.60;99.90;;;;;;5077175;28;20198;-84
2022/07/22 08:49:31;;;;;;;2.30;2.10;;;26.70;99.90;;;;;;5077538;28;20233;-77
2022/07/22 08:52:01;;;;;;;4.15;2.20;;;26.90;99.90;;;;;;5076658;28;20662;-83
2022/07/22 08:54:28;;;;;;;4.35;2.53;;;26.90;99.90;;;;;;5078297;28;20202;-78
2022/07/22 08:56:56;;;;;;;4.70;2.55;;;27.10;99.90;;;;;;5080671;28;20195;-79
2022/07/22 08:59:23;;;;;;;5.07;2.40;;;27.10;99.90;;;;;;5079165;28;20222;-78
2022/07/22 09:02:07;;;;;;;2.35;1.70;;;27.10;99.90;;;;;;5077286;28;20581;-78
2022/07/22 09:04:50;;;;;;;1.95;1.85;;;27.20;99.90;;;;;;5077750;28;20229;-78
2022/07/22 09:07:28;;;;;;;1.75;1.50;;;27.10;99.90;;;;;;5078752;28;20290;-82
2022/07/22 09:09:55;;;;;;;2.28;2.17;;;27.20;99.90;;;;;;5079091;28;20217;-80
2022/07/22 09:12:23;;;;;;;2.78;1.65;;;27.30;99.90;;;;;;5076299;28;20206;-83
2022/07/22 09:14:52;;;;;;;3.20;1.98;;;27.40;99.90;;;;;;5076294;28;20630;-78
2022/07/22 09:17:31;;;;;;;3.25;1.83;;;27.50;99.90;;;;;;5075461;28;20198;-79
2022/07/22 09:20:00;;;;;;;3.58;1.45;;;27.50;99.90;;;;;;5075143;28;20226;-78
2022/07/22 09:22:35;;;;;;;3.05;1.80;;;27.70;99.90;;;;;;5075489;28;20210;-77
2022/07/22 09:25:21;;;;;;;2.50;1.95;;;27.90;99.90;;;;;;5075784;28;20212;-83
2022/07/22 09:27:48;;;;;;;1.30;1.20;;;27.90;99.90;;;;;;5074948;28;20575;-84
2022/07/22 09:30:20;;;;;;;1.83;1.73;;;28.00;99.90;;;;;;5074834;28;20202;-83
2022/07/22 09:32:49;;;;;;;3.65;2.20;;;28.10;99.90;;;;;;5075278;28;20268;-84
2022/07/22 09:35:19;;;;;;;3.35;1.83;;;27.90;99.90;;;;;;5075634;28;20202;-85
2022/07/22 09:37:50;;;;;;;3.35;1.60;;;27.90;99.90;;;;;;5074703;28;20226;-85
2022/07/22 09:40:19;;;;;;;4.15;2.15;;;27.80;99.90;;;;;;5075082;28;20220;-85
2022/07/22 09:42:51;;;;;;;2.05;1.60;;;27.80;99.90;;;;;;5074678;28;20265;-85
2022/07/22 09:45:21;;;;;;;2.55;2.35;;;27.90;99.90;;;;;;5074927;28;20209;-86
2022/07/22 09:47:51;;;;;;;2.72;1.60;;;27.90;99.90;;;;;;5074782;28;20205;-86
2022/07/22 09:50:21;;;;;;;4.32;2.22;;;28.10;99.90;;;;;;5074796;28;20192;-85
2022/07/22 09:52:49;;;;;;;3.00;2.35;;;28.30;99.90;;;;;;5074832;28;20183;-85
2022/07/22 09:55:17;;;;;;;2.53;2.00;;;28.50;99.90;;;;;;5074338;28;20233;-85
2022/07/22 09:57:44;;;;;;;5.38;2.25;;;28.60;99.90;;;;;;5074611;28;20238;-85
2022/07/22 10:00:13;;;;;;;3.88;2.20;;;28.70;99.90;;;;;;5074481;28;20635;-85
2022/07/22 10:02:45;;;;;;;4.97;1.83;;;28.70;99.90;;;;;;5075193;28;20301;-85
2022/07/22 10:05:15;;;;;;;2.90;2.63;;;28.60;99.90;;;;;;5074499;28;20250;-84
2022/07/22 10:07:43;;;;;;;2.00;1.90;;;28.80;99.90;;;;;;5074182;28;20226;-83
2022/07/22 10:10:12;;;;;;;4.40;3.08;;;28.80;99.90;;;;;;5074147;28;20649;-84
2022/07/22 10:12:40;;;;;;;3.38;2.70;;;28.70;99.90;;;;;;5074418;28;20293;-83
2022/07/22 10:15:09;;;;;;;2.25;2.05;;;28.60;99.90;;;;;;5073922;28;20553;-83
2022/07/22 10:17:38;;;;;;;2.53;1.70;;;28.70;99.90;;;;;;5074071;28;20202;-83
2022/07/22 10:20:06;;;;;;;2.95;1.70;;;28.80;99.90;;;;;;5073976;28;20222;-83
2022/07/22 10:22:50;;;;;;;1.85;1.73;;;28.70;99.90;;;;;;5074138;28;20187;-84
2022/07/22 10:25:18;;;;;;;2.50;2.30;;;28.70;99.90;;;;;;5073790;28;20638;-83
2022/07/22 10:27:45;;;;;;;1.80;1.70;;;28.70;99.90;;;;;;5074002;28;20233;-83
2022/07/22 10:30:15;;;;;;;2.63;1.70;;;28.70;99.90;;;;;;5073898;28;20225;-83
2022/07/22 10:32:42;;;;;;;3.00;1.95;;;28.60;99.90;;;;;;5073903;28;20209;-83
2022/07/22 10:35:22;;;;;;;1.63;1.58;;;28.60;99.90;;;;;;5073847;28;20205;-83
2022/07/22 10:37:54;;;;;;;2.15;1.95;;;28.70;99.90;;;;;;5073345;28;20229;-77
2022/07/22 10:40:22;;;;;;;2.25;1.95;;;28.80;99.90;;;;;;5073473;28;20646;-77
2022/07/22 10:43:06;;;;;;;2.28;2.08;;;28.90;99.90;;;;;;5073750;28;20217;-77
2022/07/22 10:45:34;;;;;;;2.65;1.63;;;28.90;99.90;;;;;;5073805;28;20289;-77
2022/07/22 10:48:05;;;;;;;2.58;1.75;;;28.90;99.90;;;;;;5073648;28;20198;-79
2022/07/22 10:50:49;;;;;;;1.88;1.70;;;28.90;99.90;;;;;;5073701;28;20184;-78
2022/07/22 10:53:19;;;;;;;2.13;1.90;;;29.00;99.60;;;;;;5073879;28;20190;-77
2022/07/22 10:56:04;;;;;;;1.60;1.50;;;29.10;99.50;;;;;;5073630;28;20182;-77
2022/07/22 10:58:46;;;;;;;2.10;1.92;;;29.10;99.90;;;;;;5073514;28;20233;-77
2022/07/22 11:01:15;;;;;;;2.65;1.60;;;29.10;99.70;;;;;;5073199;28;20696;-77
2022/07/22 11:03:43;;;;;;;2.00;1.58;;;29.20;98.10;;;;;;5073545;28;20197;-77
2022/07/22 11:06:16;;;;;;;2.38;2.25;;;29.40;98.90;;;;;;5073526;28;20196;-78
2022/07/22 11:08:45;;;;;;;4.50;2.58;;;29.60;97.40;;;;;;5073562;28;20226;-78
2022/07/22 11:11:12;;;;;;;2.42;2.25;;;29.90;98.20;;;;;;5073087;28;20645;-77
2022/07/22 11:13:41;;;;;;;3.00;1.58;;;30.20;98.20;;;;;;5073352;28;20205;-77
2022/07/22 11:16:16;;;;;;;2.20;2.10;;;30.40;97.70;;;;;;5073063;28;20216;-77
2022/07/22 11:18:51;;;;;;;4.00;2.15;;;30.60;97.80;;;;;;5073022;28;20213;-77
2022/07/22 11:21:20;;;;;;;1.80;1.65;;;30.70;95.60;;;;;;5073251;28;20206;-78
2022/07/22 11:23:50;;;;;;;3.13;2.22;;;30.50;94.70;;;;;;5072984;28;20209;-77
2022/07/22 11:26:19;;;;;;;2.00;1.70;;;30.20;94.30;;;;;;5073466;28;20186;-78
2022/07/22 11:28:46;;;;;;;2.72;2.05;;;29.90;94.40;;;;;;5075119;28;20236;-77
2022/07/22 11:31:17;;;;;;;1.75;1.65;;;29.80;95.30;;;;;;5077063;28;20739;-77
2022/07/22 11:33:44;;;;;;;1.58;1.48;;;29.50;95.60;;;;;;5077367;28;20208;-78
2022/07/22 11:36:11;;;;;;;2.80;1.92;;;29.50;95.60;;;;;;5077305;28;20233;-77
2022/07/22 11:38:46;;;;;;;2.30;1.98;;;29.50;94.40;;;;;;5076858;28;20236;-77
2022/07/22 11:41:16;;;;;;;1.70;1.60;;;29.40;95.10;;;;;;5076884;28;20673;-77
2022/07/22 11:43:45;;;;;;;3.75;2.25;;;29.20;94.50;;;;;;5077388;28;20191;-77
2022/07/22 11:46:12;;;;;;;5.72;2.25;;;29.10;95.30;;;;;;5077119;28;20217;-77
2022/07/22 11:48:39;;;;;;;2.25;1.95;;;29.00;95.80;;;;;;5076957;28;20218;-77
2022/07/22 11:51:07;;;;;;;4.05;1.95;;;28.90;97.00;;;;;;5076672;28;20572;-77
2022/07/22 11:53:35;;;;;;;2.47;1.98;;;29.00;95.50;;;;;;5076917;28;20687;-77
2022/07/22 11:56:03;;;;;;;1.95;1.77;;;29.10;96.00;;;;;;5077738;28;20206;-77
2022/07/22 11:58:43;;;;;;;2.25;2.05;;;29.20;96.50;;;;;;5076499;28;20222;-77
2022/07/22 12:01:12;;;;;;;2.72;1.80;;;29.10;96.30;;;;;;5076786;28;20206;-77
2022/07/22 12:03:42;;;;;;;3.58;2.10;;;29.10;93.80;;;;;;5077290;28;20553;-77
2022/07/22 12:06:12;;;;;;;3.03;1.80;;;29.10;94.80;;;;;;5076393;28;20202;-77
2022/07/22 12:08:45;;;;;;;1.90;1.67;;;29.20;94.50;;;;;;5076500;28;20240;-77
2022/07/22 12:11:15;;;;;;;4.75;2.35;;;29.20;94.40;;;;;;5076665;28;20189;-77
2022/07/22 12:13:44;;;;;;;2.67;1.90;;;29.20;93.90;;;;;;5076547;28;20205;-78
2022/07/22 12:16:19;;;;;;;2.58;1.83;;;29.00;94.40;;;;;;5076627;28;20198;-77
2022/07/22 12:18:52;;;;;;;2.65;2.20;;;29.00;95.50;;;;;;5076383;28;20220;-77
2022/07/22 12:21:20;;;;;;;2.58;2.05;;;29.00;94.50;;;;;;5076350;28;20300;-77
2022/07/22 12:23:51;;;;;;;3.92;2.50;;;28.90;94.10;;;;;;5076038;28;20685;-77
2022/07/22 12:26:18;;;;;;;1.50;1.40;;;28.80;94.80;;;;;;5076357;28;20190;-77
2022/07/22 12:28:46;;;;;;;3.75;2.15;;;28.80;95.00;;;;;;5076183;28;20230;-76
2022/07/22 12:31:13;;;;;;;2.38;2.17;;;28.90;95.20;;;;;;5076251;28;20202;-77
2022/07/22 12:33:48;;;;;;;1.40;1.30;;;28.80;94.30;;;;;;5075902;28;20700;-77
2022/07/22 12:36:15;;;;;;;2.88;2.20;;;28.80;95.80;;;;;;5076433;28;20185;-77
2022/07/22 12:38:42;;;;;;;2.45;2.03;;;28.70;95.00;;;;;;5075324;28;20291;-77
2022/07/22 12:41:29;;;;;;;2.78;2.38;;;28.60;95.00;;;;;;5075958;28;20218;-77
2022/07/22 12:43:58;;;;;;;2.95;2.63;;;28.70;95.20;;;;;;5076070;28;20187;-77
2022/07/22 12:46:25;;;;;;;2.60;2.40;;;28.60;94.60;;;;;;5075675;28;20704;-77
2022/07/22 12:48:54;;;;;;;2.28;2.17;;;28.50;95.20;;;;;;5075855;28;20218;-77
2022/07/22 12:51:21;;;;;;;1.88;1.75;;;28.60;94.70;;;;;;5075602;28;20683;-78
2022/07/22 12:53:48;;;;;;;3.00;2.35;;;28.60;94.80;;;;;;5075919;28;20282;-77